Time;durP1;ratioP1;P1;durP2;ratioP2;P2;SDS_P1;SDS_P2;PMS_P1;PMS_P2;Temp;Humidity;BMP_temperature;BMP_pressure;BME280_temperature;BME280_humidity;BME280_pressure;Samples;Min_cycle;Max_cycle;Signal;HPM_P1;HPM_P2
2022/09/24 00:01:09;;;;;;;22.30;17.38;;;12.90;99.90;;;;;;5073170;28;20385;-67
2022/09/24 00:03:35;;;;;;;21.73;16.52;;;13.00;99.90;;;;;;5072245;28;20041;-67
2022/09/24 00:06:02;;;;;;;23.75;17.17;;;13.00;99.90;;;;;;5073274;28;20033;-68
2022/09/24 00:08:28;;;;;;;25.52;17.85;;;13.00;99.90;;;;;;5072941;28;20045;-67
2022/09/24 00:10:56;;;;;;;24.58;18.08;;;13.00;99.90;;;;;;5073443;28;20055;-67
2022/09/24 00:13:22;;;;;;;21.35;17.60;;;13.00;99.90;;;;;;5055465;28;20300;-67
2022/09/24 00:15:49;;;;;;;23.73;18.60;;;13.00;99.90;;;;;;5073062;28;20106;-67
2022/09/24 00:18:17;;;;;;;27.40;22.17;;;13.00;99.90;;;;;;5072147;28;20046;-67
2022/09/24 00:20:43;;;;;;;29.15;22.95;;;13.10;99.90;;;;;;5073039;28;20036;-67
2022/09/24 00:23:10;;;;;;;34.03;24.52;;;13.00;99.90;;;;;;5072909;28;20358;-67
2022/09/24 00:28:28;;;;;;;43.42;34.00;;;13.10;99.90;;;;;;5073014;28;20522;-67
2022/09/24 00:30:57;;;;;;;46.30;35.83;;;13.10;99.90;;;;;;5072960;28;20041;-67
2022/09/24 00:33:27;;;;;;;46.83;36.33;;;13.10;99.90;;;;;;5072895;28;20098;-67
2022/09/24 00:36:03;;;;;;;48.42;35.13;;;13.10;99.90;;;;;;5071667;28;20072;-67
2022/09/24 00:38:30;;;;;;;40.17;30.48;;;13.10;99.90;;;;;;5073013;28;20044;-67
2022/09/24 00:40:56;;;;;;;39.55;29.52;;;13.10;99.90;;;;;;5076014;28;20094;-67
2022/09/24 00:43:35;;;;;;;33.67;26.92;;;13.10;99.90;;;;;;5076528;28;20048;-67
2022/09/24 00:46:24;;;;;;;34.65;24.58;;;13.10;99.90;;;;;;5076676;28;20037;-67
2022/09/24 00:48:53;;;;;;;30.13;23.48;;;13.10;99.90;;;;;;5076221;28;20044;-67
2022/09/24 00:51:21;;;;;;;26.13;20.67;;;13.10;99.90;;;;;;5076486;28;20037;-67
2022/09/24 00:53:51;;;;;;;28.35;20.73;;;13.10;99.90;;;;;;5076451;28;20450;-67
2022/09/24 00:56:19;;;;;;;28.60;20.75;;;13.10;99.90;;;;;;5076910;28;20440;-67
2022/09/24 00:58:53;;;;;;;29.65;19.83;;;13.10;99.90;;;;;;5076162;28;20102;-67
2022/09/24 01:01:21;;;;;;;27.92;19.73;;;13.10;99.90;;;;;;5076416;28;20048;-67
2022/09/24 01:03:49;;;;;;;25.80;19.92;;;13.10;99.90;;;;;;5076482;28;20462;-67
2022/09/24 01:06:15;;;;;;;25.20;18.63;;;13.10;99.90;;;;;;5075237;28;20120;-67
2022/09/24 01:08:41;;;;;;;26.70;20.02;;;13.10;99.90;;;;;;5075833;28;20486;-68
2022/09/24 01:11:06;;;;;;;27.00;19.17;;;13.10;99.90;;;;;;5076228;28;20056;-67
2022/09/24 01:14:05;;;;;;;25.55;19.38;;;13.10;99.90;;;;;;5076180;28;20101;-67
2022/09/24 01:16:54;;;;;;;26.60;19.48;;;13.10;99.90;;;;;;5075430;28;20068;-67
2022/09/24 01:19:47;;;;;;;27.02;19.50;;;13.10;99.90;;;;;;5075945;28;20049;-67
2022/09/24 01:22:44;;;;;;;27.77;20.33;;;13.10;99.90;;;;;;5076148;28;20119;-67
2022/09/24 01:25:30;;;;;;;26.98;19.25;;;13.10;99.90;;;;;;5076011;28;20076;-67
2022/09/24 01:28:25;;;;;;;27.40;19.80;;;13.10;99.90;;;;;;5074472;28;20134;-67
2022/09/24 01:30:58;;;;;;;28.50;20.25;;;13.10;99.90;;;;;;5048334;28;20348;-67
2022/09/24 01:33:26;;;;;;;27.33;18.55;;;13.00;99.90;;;;;;5076107;28;20047;-67
2022/09/24 01:35:56;;;;;;;29.27;20.73;;;13.10;99.90;;;;;;5075676;28;20037;-67
2022/09/24 01:38:28;;;;;;;26.20;18.75;;;13.10;99.90;;;;;;5075456;28;20477;-67
2022/09/24 01:40:57;;;;;;;24.80;19.23;;;13.00;99.90;;;;;;5075749;28;20072;-67
2022/09/24 01:43:25;;;;;;;26.83;19.17;;;13.00;99.90;;;;;;5075573;28;20044;-67
2022/09/24 01:45:52;;;;;;;27.02;19.40;;;13.00;99.90;;;;;;5075627;28;20047;-67
2022/09/24 01:48:20;;;;;;;28.08;19.92;;;13.00;99.90;;;;;;5076029;28;20048;-67
2022/09/24 01:51:29;;;;;;;27.38;20.20;;;13.00;99.90;;;;;;5075320;28;20101;-67
2022/09/24 01:54:04;;;;;;;29.23;19.38;;;13.00;99.90;;;;;;5075830;28;20048;-67
2022/09/24 01:56:37;;;;;;;27.33;19.33;;;13.00;99.90;;;;;;5074428;28;20045;-67
2022/09/24 01:59:15;;;;;;;27.65;19.20;;;13.00;99.90;;;;;;5075327;28;20044;-67
2022/09/24 02:01:49;;;;;;;27.75;19.35;;;13.00;99.90;;;;;;5076076;28;20137;-67
2022/09/24 02:04:18;;;;;;;28.33;19.55;;;13.00;99.90;;;;;;5075300;28;20062;-67
2022/09/24 02:06:55;;;;;;;28.10;19.95;;;12.90;99.90;;;;;;5075098;28;20159;-67
2022/09/24 02:09:32;;;;;;;26.23;18.42;;;13.00;99.90;;;;;;5075217;28;20051;-67
2022/09/24 02:12:05;;;;;;;27.40;18.75;;;12.90;99.90;;;;;;5074120;28;20411;-67
2022/09/24 02:14:37;;;;;;;25.95;18.83;;;12.90;99.90;;;;;;5074990;28;20037;-66
2022/09/24 02:17:05;;;;;;;24.63;18.38;;;13.00;99.90;;;;;;5075045;28;20041;-67
2022/09/24 02:19:34;;;;;;;26.13;19.35;;;13.00;99.90;;;;;;5075376;28;20119;-67
2022/09/24 02:22:00;;;;;;;28.55;19.63;;;12.90;99.90;;;;;;5075596;28;20046;-67
2022/09/24 02:24:46;;;;;;;29.42;18.80;;;13.00;99.90;;;;;;5074667;28;20043;-67
2022/09/24 02:27:12;;;;;;;26.97;19.57;;;13.00;99.90;;;;;;5074821;28;20048;-68
2022/09/24 02:29:38;;;;;;;26.42;18.85;;;12.90;99.90;;;;;;5074660;28;20040;-67
2022/09/24 02:32:07;;;;;;;29.13;20.33;;;13.00;99.90;;;;;;5073459;28;20044;-67
2022/09/24 02:34:40;;;;;;;25.63;18.77;;;12.90;99.90;;;;;;5073420;28;20044;-67
2022/09/24 02:37:11;;;;;;;27.98;19.42;;;12.90;99.90;;;;;;5074536;28;20081;-67
2022/09/24 02:39:37;;;;;;;28.38;19.35;;;12.90;99.90;;;;;;5074441;28;20102;-67
2022/09/24 02:42:05;;;;;;;26.83;18.08;;;12.90;99.90;;;;;;5074908;28;20040;-68
2022/09/24 02:44:37;;;;;;;26.42;18.67;;;12.90;99.90;;;;;;5074325;28;20086;-67
2022/09/24 02:47:05;;;;;;;25.02;18.80;;;12.90;99.90;;;;;;5075084;28;20121;-67
2022/09/24 02:49:31;;;;;;;28.50;18.60;;;12.90;99.90;;;;;;5073251;28;20044;-67
2022/09/24 02:51:57;;;;;;;27.23;19.13;;;12.90;99.90;;;;;;5074240;28;20047;-67
2022/09/24 02:54:24;;;;;;;26.90;18.60;;;12.90;99.90;;;;;;5074312;28;20036;-67
2022/09/24 02:56:50;;;;;;;30.08;20.25;;;12.90;99.90;;;;;;5073942;28;20040;-68
2022/09/24 02:59:16;;;;;;;28.05;19.27;;;12.90;99.90;;;;;;5074008;28;20483;-67
2022/09/24 03:01:41;;;;;;;26.25;18.73;;;12.90;99.90;;;;;;5074068;28;20044;-68
2022/09/24 03:04:07;;;;;;;26.48;18.85;;;12.80;99.90;;;;;;5072239;28;20033;-67
2022/09/24 03:06:33;;;;;;;28.70;20.70;;;12.90;99.90;;;;;;5072937;28;20098;-67
2022/09/24 03:09:01;;;;;;;28.45;19.60;;;12.90;99.90;;;;;;5073600;28;20048;-67
2022/09/24 03:11:27;;;;;;;27.23;18.85;;;12.80;99.90;;;;;;5074445;28;20163;-66
2022/09/24 03:13:53;;;;;;;28.20;19.38;;;12.90;99.90;;;;;;5073749;28;20040;-67
2022/09/24 03:16:19;;;;;;;25.85;18.70;;;12.90;99.90;;;;;;5072182;28;20187;-67
2022/09/24 03:18:46;;;;;;;29.45;19.48;;;12.90;99.90;;;;;;5073395;28;20469;-67
2022/09/24 03:21:14;;;;;;;31.17;20.35;;;12.80;99.90;;;;;;5072759;28;20044;-67
2022/09/24 03:23:40;;;;;;;27.35;19.17;;;12.90;99.90;;;;;;5072844;28;20484;-67
2022/09/24 03:26:07;;;;;;;27.73;19.52;;;12.90;99.90;;;;;;5073710;28;20032;-67
2022/09/24 03:28:32;;;;;;;28.95;20.00;;;12.80;99.90;;;;;;5073914;28;20194;-67
2022/09/24 03:31:01;;;;;;;28.73;20.25;;;12.80;99.90;;;;;;5073153;28;20071;-69
2022/09/24 03:33:37;;;;;;;29.58;19.75;;;12.80;99.90;;;;;;5073140;28;20457;-67
2022/09/24 03:36:06;;;;;;;30.25;20.67;;;12.80;99.90;;;;;;5073430;28;20035;-67
2022/09/24 03:38:33;;;;;;;28.77;19.63;;;12.80;99.90;;;;;;5074010;28;20040;-67
2022/09/24 03:40:59;;;;;;;27.95;20.23;;;12.80;99.90;;;;;;5072547;28;20048;-67
2022/09/24 03:43:26;;;;;;;27.85;19.50;;;12.80;99.90;;;;;;5072474;28;20049;-67
2022/09/24 03:45:52;;;;;;;28.65;20.00;;;12.80;99.90;;;;;;5073359;28;20044;-67
2022/09/24 03:48:19;;;;;;;26.42;19.45;;;12.80;99.90;;;;;;5073573;28;20412;-67
2022/09/24 03:50:45;;;;;;;28.08;19.85;;;12.80;99.90;;;;;;5072649;28;20440;-68
2022/09/24 03:53:12;;;;;;;29.52;20.38;;;12.80;99.90;;;;;;5072521;28;20040;-68
2022/09/24 03:55:45;;;;;;;31.33;20.98;;;12.80;99.90;;;;;;5074002;28;20040;-67
2022/09/24 03:58:12;;;;;;;29.85;20.00;;;12.80;99.90;;;;;;5073386;28;20049;-68
2022/09/24 04:00:38;;;;;;;27.83;19.58;;;12.80;99.90;;;;;;5073315;28;20048;-68
2022/09/24 04:03:04;;;;;;;30.05;20.20;;;12.80;99.90;;;;;;5072297;28;20526;-67
2022/09/24 04:05:30;;;;;;;29.60;20.55;;;12.80;99.90;;;;;;5072976;28;20052;-67
2022/09/24 04:07:58;;;;;;;31.65;20.55;;;12.80;99.90;;;;;;5073173;28;20127;-66
2022/09/24 04:10:24;;;;;;;29.08;20.00;;;12.80;99.90;;;;;;5073663;28;20461;-66
2022/09/24 04:12:51;;;;;;;30.52;20.95;;;12.80;99.90;;;;;;5073409;28;20123;-67
2022/09/24 04:15:17;;;;;;;29.67;20.73;;;12.80;99.90;;;;;;5076041;28;20469;-67
2022/09/24 04:17:55;;;;;;;28.63;21.25;;;12.80;99.90;;;;;;5077235;28;20044;-68
2022/09/24 04:20:23;;;;;;;30.23;20.80;;;12.80;99.90;;;;;;5076444;28;20036;-67
2022/09/24 04:22:49;;;;;;;27.92;19.83;;;12.90;99.90;;;;;;5077457;28;20052;-68
2022/09/24 04:25:16;;;;;;;30.25;20.15;;;12.90;99.90;;;;;;5076900;28;20095;-68
2022/09/24 04:27:43;;;;;;;29.83;20.30;;;12.90;99.90;;;;;;5077775;28;20086;-67
2022/09/24 04:30:12;;;;;;;31.65;20.60;;;12.90;99.90;;;;;;5075977;28;20480;-67
2022/09/24 04:32:39;;;;;;;28.75;20.88;;;12.90;99.90;;;;;;5077219;28;20403;-67
2022/09/24 04:35:05;;;;;;;30.35;19.70;;;12.90;99.90;;;;;;5076774;28;20123;-68
2022/09/24 04:37:31;;;;;;;30.23;21.00;;;12.90;99.90;;;;;;5077689;28;20356;-68
2022/09/24 04:39:57;;;;;;;31.00;19.77;;;12.90;99.90;;;;;;5076078;28;20060;-68
2022/09/24 04:42:22;;;;;;;29.38;20.48;;;12.80;99.90;;;;;;5075750;28;20507;-68
2022/09/24 04:44:48;;;;;;;30.52;19.75;;;12.90;99.90;;;;;;5076663;28;20484;-67
2022/09/24 04:47:14;;;;;;;28.90;20.70;;;12.90;99.90;;;;;;5076623;28;20530;-67
2022/09/24 04:49:44;;;;;;;29.98;19.63;;;12.80;99.90;;;;;;5076651;28;20047;-68
2022/09/24 04:52:14;;;;;;;30.65;19.65;;;12.90;99.90;;;;;;5075973;28;20127;-68
2022/09/24 04:54:46;;;;;;;29.83;19.75;;;12.90;99.90;;;;;;5076275;28;20119;-67
2022/09/24 04:57:15;;;;;;;29.38;19.23;;;12.90;99.90;;;;;;5076456;28;20381;-68
2022/09/24 04:59:42;;;;;;;28.58;19.73;;;12.80;99.90;;;;;;5076421;28;20044;-67
2022/09/24 05:02:08;;;;;;;28.35;19.45;;;12.80;99.90;;;;;;5076329;28;20079;-67
2022/09/24 05:04:36;;;;;;;25.90;17.63;;;12.80;99.90;;;;;;5076350;28;20040;-68
2022/09/24 05:07:03;;;;;;;27.90;19.42;;;12.80;99.90;;;;;;5075062;28;20052;-68
2022/09/24 05:09:30;;;;;;;28.25;19.10;;;12.80;99.90;;;;;;5074728;28;20436;-69
2022/09/24 05:11:56;;;;;;;26.75;18.40;;;12.80;99.90;;;;;;5075144;28;20048;-67
2022/09/24 05:14:22;;;;;;;27.92;19.08;;;12.80;99.90;;;;;;5075048;28;20047;-67
2022/09/24 05:16:48;;;;;;;26.52;17.30;;;12.70;99.90;;;;;;5076879;28;20041;-67
2022/09/24 05:19:13;;;;;;;25.08;17.40;;;12.70;99.90;;;;;;5076272;28;20369;-67
2022/09/24 05:21:39;;;;;;;27.77;18.17;;;12.70;99.90;;;;;;5075303;28;20498;-67
2022/09/24 05:24:05;;;;;;;26.23;18.25;;;12.80;99.90;;;;;;5075924;28;20495;-68
2022/09/24 05:29:15;;;;;;;26.70;18.27;;;12.70;99.90;;;;;;5075842;28;20070;-67
2022/09/24 05:31:41;;;;;;;24.73;17.88;;;12.80;99.90;;;;;;5075349;28;20044;-68
2022/09/24 05:34:06;;;;;;;26.10;18.02;;;12.70;99.90;;;;;;5074034;28;20089;-68
2022/09/24 05:36:32;;;;;;;26.05;18.13;;;12.80;99.90;;;;;;5075804;28;20040;-67
2022/09/24 05:38:58;;;;;;;26.77;17.45;;;12.80;99.90;;;;;;5075591;28;20497;-68
2022/09/24 05:41:23;;;;;;;24.88;17.08;;;12.80;99.90;;;;;;5074920;28;20041;-67
2022/09/24 05:43:49;;;;;;;26.00;17.92;;;12.80;99.90;;;;;;5076443;28;20067;-68
2022/09/24 05:46:15;;;;;;;25.40;17.70;;;12.80;99.90;;;;;;5075582;28;20037;-68
2022/09/24 05:48:41;;;;;;;26.23;17.33;;;12.80;99.90;;;;;;5057705;28;20075;-67
2022/09/24 05:51:06;;;;;;;24.65;16.95;;;12.80;99.90;;;;;;5074223;28;20097;-67
2022/09/24 05:53:32;;;;;;;26.75;17.52;;;12.80;99.90;;;;;;5075929;28;20479;-68
2022/09/24 05:55:58;;;;;;;26.27;18.10;;;12.90;99.90;;;;;;5075360;28;20037;-68
2022/09/24 05:58:24;;;;;;;26.77;17.20;;;12.80;99.90;;;;;;5075403;28;20040;-68
2022/09/24 06:00:50;;;;;;;25.65;16.98;;;12.80;99.90;;;;;;5075327;28;20040;-68
2022/09/24 06:03:18;;;;;;;27.40;16.65;;;12.80;99.90;;;;;;5074299;28;20119;-67
2022/09/24 06:05:48;;;;;;;27.88;17.38;;;12.80;99.90;;;;;;5075114;28;20080;-68
2022/09/24 06:08:16;;;;;;;26.52;17.35;;;12.90;99.90;;;;;;5074008;28;20044;-68
2022/09/24 06:10:44;;;;;;;26.23;17.52;;;12.90;99.90;;;;;;5074651;28;20052;-68
2022/09/24 06:13:10;;;;;;;25.50;16.50;;;12.90;99.90;;;;;;5075855;28;20344;-68
2022/09/24 06:15:41;;;;;;;25.13;16.52;;;12.90;99.90;;;;;;5074861;28;20041;-68
2022/09/24 06:18:07;;;;;;;24.25;15.27;;;12.90;99.90;;;;;;5075532;28;20047;-67
2022/09/24 06:20:33;;;;;;;27.10;17.60;;;12.90;99.90;;;;;;5074886;28;20044;-67
2022/09/24 06:22:59;;;;;;;26.88;16.85;;;13.00;99.90;;;;;;5074771;28;20102;-67
2022/09/24 06:25:25;;;;;;;28.45;17.13;;;13.00;99.90;;;;;;5074854;28;20071;-68
2022/09/24 06:27:59;;;;;;;26.83;16.77;;;13.00;99.90;;;;;;5075243;28;20097;-67
2022/09/24 06:30:26;;;;;;;27.23;16.77;;;13.00;99.90;;;;;;5074722;28;20469;-67
2022/09/24 06:32:53;;;;;;;28.92;17.40;;;13.00;99.90;;;;;;5074685;28;20109;-68
2022/09/24 06:35:19;;;;;;;26.88;15.95;;;13.00;99.90;;;;;;5073451;28;20049;-68
2022/09/24 06:37:45;;;;;;;27.85;16.90;;;13.00;99.90;;;;;;5072649;28;20113;-67
2022/09/24 06:40:11;;;;;;;29.33;17.10;;;13.00;99.90;;;;;;5074473;28;20036;-68
2022/09/24 06:42:37;;;;;;;27.15;16.10;;;13.00;99.90;;;;;;5073764;28;20357;-68
2022/09/24 06:45:03;;;;;;;29.85;17.40;;;13.00;99.90;;;;;;5073446;28;20361;-68
2022/09/24 06:47:29;;;;;;;28.83;17.00;;;13.00;99.90;;;;;;5073572;28;20488;-68
2022/09/24 06:49:54;;;;;;;28.40;16.48;;;13.00;99.90;;;;;;5074752;28;20036;-68
2022/09/24 06:52:22;;;;;;;27.83;17.13;;;13.00;99.90;;;;;;5073107;28;20059;-67
2022/09/24 06:54:47;;;;;;;28.25;16.05;;;13.00;99.90;;;;;;5072862;28;20043;-68
2022/09/24 06:57:14;;;;;;;29.73;17.33;;;13.10;99.90;;;;;;5074191;28;20044;-68
2022/09/24 06:59:40;;;;;;;31.17;16.27;;;13.10;99.90;;;;;;5074076;28;20044;-68
2022/09/24 07:02:09;;;;;;;29.17;16.77;;;13.10;99.90;;;;;;5073109;28;20373;-68
2022/09/24 07:04:34;;;;;;;27.15;16.25;;;13.10;99.90;;;;;;5073974;28;20470;-67
2022/09/24 07:09:44;;;;;;;29.17;16.42;;;13.10;99.90;;;;;;5074095;28;20074;-64
2022/09/24 07:12:10;;;;;;;27.83;16.00;;;13.10;99.90;;;;;;5073900;28;20048;-64
2022/09/24 07:14:35;;;;;;;26.33;15.38;;;13.10;99.90;;;;;;5073900;28;20382;-64
2022/09/24 07:17:01;;;;;;;27.65;15.57;;;13.10;99.90;;;;;;5073758;28;20092;-64
2022/09/24 07:19:27;;;;;;;27.67;15.77;;;13.10;99.90;;;;;;5073723;28;20369;-64
2022/09/24 07:21:52;;;;;;;26.50;15.35;;;13.10;99.90;;;;;;5073626;28;20392;-64
2022/09/24 07:24:18;;;;;;;25.38;14.93;;;13.10;99.90;;;;;;5072891;28;20462;-64
2022/09/24 07:26:43;;;;;;;25.75;15.50;;;13.20;99.90;;;;;;5073953;28;20087;-64
2022/09/24 07:29:09;;;;;;;26.73;15.82;;;13.10;99.90;;;;;;5073620;28;20477;-64
2022/09/24 07:31:35;;;;;;;24.60;15.48;;;13.20;99.90;;;;;;5073620;28;20335;-63
2022/09/24 07:34:01;;;;;;;26.65;15.02;;;13.10;99.90;;;;;;5072348;28;20410;-64
2022/09/24 07:36:29;;;;;;;22.42;14.45;;;13.10;99.90;;;;;;5073410;28;20044;-64
2022/09/24 07:38:56;;;;;;;24.25;15.07;;;13.10;99.90;;;;;;5073438;28;20055;-64
2022/09/24 07:41:22;;;;;;;23.80;14.77;;;13.20;99.90;;;;;;5071968;28;20501;-64
2022/09/24 07:43:47;;;;;;;23.52;14.57;;;13.20;99.90;;;;;;5072997;28;20045;-64
2022/09/24 07:46:13;;;;;;;23.42;14.10;;;13.20;99.90;;;;;;5072433;28;20051;-64
2022/09/24 07:48:38;;;;;;;22.73;14.13;;;13.20;99.90;;;;;;5073287;28;20135;-64
2022/09/24 07:51:08;;;;;;;21.05;13.55;;;13.20;99.90;;;;;;5073396;28;20044;-64
2022/09/24 07:53:33;;;;;;;21.50;14.07;;;13.20;99.90;;;;;;5073213;28;20049;-64
2022/09/24 07:56:00;;;;;;;21.25;13.48;;;13.20;99.90;;;;;;5071791;28;20074;-65
2022/09/24 07:58:25;;;;;;;21.77;12.43;;;13.20;99.90;;;;;;5072560;28;20048;-64
2022/09/24 08:00:51;;;;;;;16.20;10.55;;;13.20;99.90;;;;;;5055667;28;20047;-64
2022/09/24 08:03:17;;;;;;;16.90;10.70;;;13.20;99.90;;;;;;5073946;28;20075;-64
2022/09/24 08:05:45;;;;;;;16.58;10.85;;;13.20;99.90;;;;;;5073334;28;20556;-65
2022/09/24 08:08:11;;;;;;;16.38;10.88;;;13.30;99.90;;;;;;5073207;28;20415;-64
2022/09/24 08:10:37;;;;;;;15.93;10.77;;;13.30;99.90;;;;;;5072996;28;20135;-65
2022/09/24 08:13:03;;;;;;;15.57;10.18;;;13.30;99.90;;;;;;5072940;28;20223;-65
2022/09/24 08:15:29;;;;;;;15.10;10.13;;;13.30;99.90;;;;;;5072943;28;20066;-65
2022/09/24 08:18:03;;;;;;;16.08;11.38;;;13.30;99.90;;;;;;5072990;28;20433;-63
2022/09/24 08:20:30;;;;;;;15.95;11.00;;;13.40;99.90;;;;;;5073397;28;20047;-63
2022/09/24 08:23:04;;;;;;;18.70;11.48;;;13.40;99.90;;;;;;5073653;28;20045;-63
2022/09/24 08:25:30;;;;;;;16.75;10.88;;;13.40;99.90;;;;;;5072706;28;20048;-63
2022/09/24 08:28:15;;;;;;;19.35;11.32;;;13.40;99.90;;;;;;5072966;28;20139;-64
2022/09/24 08:30:42;;;;;;;17.42;10.10;;;13.50;99.90;;;;;;5072948;28;20044;-64
2022/09/24 08:33:08;;;;;;;16.73;10.50;;;13.50;99.90;;;;;;5072558;28;20079;-64
2022/09/24 08:35:34;;;;;;;17.02;10.68;;;13.50;99.90;;;;;;5072173;28;20032;-64
2022/09/24 08:38:02;;;;;;;17.92;10.30;;;13.60;99.90;;;;;;5072753;28;20448;-64
2022/09/24 08:40:33;;;;;;;16.00;10.60;;;13.60;99.90;;;;;;5072517;28;20101;-65
2022/09/24 08:43:18;;;;;;;15.77;10.75;;;13.60;99.90;;;;;;5072377;28;20176;-64
2022/09/24 08:48:41;;;;;;;15.65;10.15;;;13.60;99.90;;;;;;5072805;28;20044;-64
2022/09/24 08:51:12;;;;;;;15.98;10.02;;;13.60;99.90;;;;;;5073385;28;20362;-65
2022/09/24 08:53:52;;;;;;;14.40;9.35;;;13.60;99.90;;;;;;5072638;28;20091;-65
2022/09/24 08:56:24;;;;;;;14.10;9.65;;;13.60;99.90;;;;;;5072858;28;20369;-64
2022/09/24 08:59:00;;;;;;;13.75;8.90;;;13.60;99.90;;;;;;5072569;28;20040;-64
2022/09/24 09:01:37;;;;;;;13.32;8.68;;;13.60;99.90;;;;;;5074746;28;20036;-64
2022/09/24 09:04:26;;;;;;;15.00;9.13;;;13.70;99.90;;;;;;5074931;28;20048;-63
2022/09/24 09:07:22;;;;;;;14.63;9.45;;;13.70;99.90;;;;;;5076054;28;20067;-63
2022/09/24 09:10:03;;;;;;;12.50;7.43;;;13.70;99.90;;;;;;5076221;28;20182;-64
2022/09/24 09:12:39;;;;;;;11.50;7.50;;;13.80;99.90;;;;;;5076650;28;20522;-64
2022/09/24 09:15:13;;;;;;;11.70;7.10;;;13.90;99.90;;;;;;5076725;28;20037;-64
2022/09/24 09:17:56;;;;;;;11.27;6.75;;;14.00;99.90;;;;;;5076043;28;20056;-65
2022/09/24 09:20:37;;;;;;;8.00;5.88;;;14.00;99.90;;;;;;5076032;28;20048;-65
2022/09/24 09:23:19;;;;;;;10.05;6.13;;;14.00;99.90;;;;;;5075956;28;20123;-64
2022/09/24 09:25:53;;;;;;;10.73;6.45;;;14.00;99.90;;;;;;5075953;28;20039;-63
2022/09/24 09:28:19;;;;;;;7.75;5.03;;;14.00;99.90;;;;;;5075707;28;20049;-64
2022/09/24 09:30:59;;;;;;;9.52;5.20;;;14.00;99.90;;;;;;5075951;28;20074;-64
2022/09/24 09:33:52;;;;;;;5.40;3.13;;;14.10;99.90;;;;;;5075734;28;20127;-64
2022/09/24 09:36:44;;;;;;;7.43;3.58;;;14.10;99.90;;;;;;5076404;28;20044;-64
2022/09/24 09:39:31;;;;;;;5.22;2.58;;;14.10;99.90;;;;;;5075620;28;20373;-64
2022/09/24 09:42:17;;;;;;;7.57;2.88;;;14.10;99.90;;;;;;5075694;28;20112;-63
2022/09/24 09:44:44;;;;;;;7.90;3.05;;;14.10;99.90;;;;;;5074313;28;20083;-63
2022/09/24 09:47:34;;;;;;;5.15;1.88;;;14.20;99.90;;;;;;5074986;28;20040;-63
2022/09/24 09:50:05;;;;;;;3.78;1.90;;;14.20;99.90;;;;;;5076241;28;20070;-63
2022/09/24 09:52:37;;;;;;;6.72;1.58;;;14.20;99.90;;;;;;5076124;28;20052;-64
2022/09/24 09:55:04;;;;;;;6.72;2.08;;;14.20;99.90;;;;;;5075656;28;20036;-63
2022/09/24 09:57:30;;;;;;;6.50;1.80;;;14.20;99.90;;;;;;5075294;28;20044;-64
2022/09/24 09:59:56;;;;;;;5.20;1.75;;;14.30;99.90;;;;;;5075535;28;20450;-63
2022/09/24 10:02:32;;;;;;;6.85;2.17;;;14.30;99.90;;;;;;5075727;28;20060;-63
2022/09/24 10:04:59;;;;;;;;;;;14.30;99.90;;;;;;5076400;28;20032;-63
2022/09/24 10:07:25;;;;;;;6.05;1.70;;;14.40;99.90;;;;;;5075721;28;19916;-63
2022/09/24 10:10:18;;;;;;;5.05;1.75;;;14.40;99.90;;;;;;5075387;28;20048;-64
2022/09/24 10:12:45;;;;;;;6.13;1.80;;;14.50;99.90;;;;;;5075427;28;20044;-63
2022/09/24 10:15:13;;;;;;;6.80;1.80;;;14.50;99.90;;;;;;5075574;28;20063;-63
2022/09/24 10:17:40;;;;;;;4.38;1.50;;;14.70;99.90;;;;;;5075137;28;20044;-63
2022/09/24 10:20:09;;;;;;;5.38;1.73;;;14.70;99.90;;;;;;5074805;28;20119;-63
2022/09/24 10:22:36;;;;;;;5.65;1.88;;;14.80;99.90;;;;;;5075199;28;20051;-63
2022/09/24 10:25:03;;;;;;;7.43;1.70;;;14.90;99.90;;;;;;5074113;28;20381;-64
2022/09/24 10:27:35;;;;;;;3.70;1.50;;;14.90;99.90;;;;;;5073606;28;20055;-63
2022/09/24 10:32:57;;;;;;;4.78;1.45;;;14.90;99.90;;;;;;5074606;28;20055;-63
2022/09/24 10:35:37;;;;;;;7.03;2.15;;;14.80;99.90;;;;;;5074858;28;20041;-63
2022/09/24 10:38:18;;;;;;;4.13;1.58;;;14.80;99.90;;;;;;5073320;28;20047;-63
2022/09/24 10:40:45;;;;;;;5.07;1.70;;;14.70;99.90;;;;;;5074962;28;20093;-63
2022/09/24 10:43:19;;;;;;;3.08;1.42;;;14.70;99.90;;;;;;5074887;28;20094;-63
2022/09/24 10:46:20;;;;;;;4.22;1.38;;;14.70;99.90;;;;;;5073987;28;20514;-63
2022/09/24 10:49:08;;;;;;;3.13;1.40;;;14.70;99.90;;;;;;5074973;28;20052;-63
2022/09/24 10:51:45;;;;;;;3.60;1.30;;;14.70;99.90;;;;;;5074927;28;20044;-63
2022/09/24 10:54:50;;;;;;;5.38;1.40;;;14.60;99.90;;;;;;5074070;28;20041;-63
2022/09/24 10:57:44;;;;;;;3.17;1.30;;;14.60;99.90;;;;;;5053365;28;20052;-63
2022/09/24 11:00:21;;;;;;;3.67;1.83;;;14.50;99.90;;;;;;5074644;28;20055;-63
2022/09/24 11:03:23;;;;;;;4.22;1.48;;;14.50;99.90;;;;;;5074617;28;20083;-62
2022/09/24 11:05:55;;;;;;;4.20;1.40;;;14.40;99.90;;;;;;5073986;28;20032;-61
2022/09/24 11:08:57;;;;;;;4.70;1.42;;;14.30;99.90;;;;;;5073927;28;20052;-62
2022/09/24 11:11:32;;;;;;;3.83;1.27;;;14.30;99.90;;;;;;5064433;28;20048;-67
2022/09/24 11:14:26;;;;;;;4.63;2.10;;;14.30;99.90;;;;;;5073898;28;20136;-67
2022/09/24 11:17:19;;;;;;;6.00;1.75;;;14.30;99.90;;;;;;5072763;28;20051;-66
2022/09/24 11:19:59;;;;;;;5.55;1.55;;;14.30;99.90;;;;;;5073987;28;20063;-66
2022/09/24 11:22:57;;;;;;;4.82;1.60;;;14.30;99.90;;;;;;5074475;28;20098;-66
2022/09/24 11:25:59;;;;;;;4.18;1.35;;;14.30;99.90;;;;;;5056090;28;20084;-67
2022/09/24 11:29:02;;;;;;;4.20;1.40;;;14.40;99.90;;;;;;5073718;28;20165;-67
2022/09/24 11:31:44;;;;;;;3.05;1.60;;;14.50;99.90;;;;;;5072920;28;20040;-66
2022/09/24 11:34:44;;;;;;;5.80;1.40;;;14.50;99.90;;;;;;5073601;28;20044;-67
2022/09/24 11:37:15;;;;;;;5.43;1.48;;;14.50;99.90;;;;;;5073326;28;20116;-66
2022/09/24 11:40:10;;;;;;;5.22;1.13;;;14.50;99.90;;;;;;5072583;28;20040;-67
2022/09/24 11:42:53;;;;;;;2.45;1.30;;;14.50;99.90;;;;;;5074183;28;20066;-68
2022/09/24 11:45:26;;;;;;;5.10;1.50;;;14.50;99.90;;;;;;5073317;28;20044;-67
2022/09/24 11:48:06;;;;;;;3.72;1.30;;;14.50;99.90;;;;;;5074007;28;20040;-67
2022/09/24 11:50:53;;;;;;;4.72;1.50;;;14.50;99.90;;;;;;5073394;28;20102;-67
2022/09/24 11:53:41;;;;;;;4.63;1.40;;;14.50;99.90;;;;;;5073241;28;20045;-67
2022/09/24 11:56:34;;;;;;;4.90;1.15;;;14.50;99.90;;;;;;5073512;28;20044;-67
2022/09/24 11:59:26;;;;;;;4.28;1.40;;;14.50;99.90;;;;;;5073215;28;20036;-68
2022/09/24 12:02:24;;;;;;;3.42;1.10;;;14.60;99.90;;;;;;5072116;28;20056;-68
2022/09/24 12:04:55;;;;;;;3.15;1.42;;;14.60;99.90;;;;;;5073697;28;20041;-67
2022/09/24 12:07:44;;;;;;;4.35;1.17;;;14.70;99.90;;;;;;5072164;28;20041;-67
2022/09/24 12:10:23;;;;;;;5.10;1.25;;;14.70;99.90;;;;;;5071825;28;20056;-67
2022/09/24 12:12:52;;;;;;;3.53;0.95;;;14.70;99.90;;;;;;5072930;28;20458;-66
2022/09/24 12:15:26;;;;;;;2.80;0.90;;;14.70;99.90;;;;;;5073539;28;20048;-66
2022/09/24 12:17:58;;;;;;;3.95;1.15;;;14.70;99.90;;;;;;5071779;28;20048;-66
2022/09/24 12:20:27;;;;;;;3.92;1.08;;;14.70;99.90;;;;;;5073015;28;20033;-66
2022/09/24 12:23:11;;;;;;;4.88;1.00;;;14.70;99.90;;;;;;5072380;28;20489;-66
2022/09/24 12:25:43;;;;;;;3.95;0.82;;;14.80;99.90;;;;;;5072651;28;20426;-66
2022/09/24 12:28:12;;;;;;;3.40;0.93;;;14.90;99.90;;;;;;5072230;28;20051;-66
2022/09/24 12:33:56;;;;;;;2.35;0.70;;;15.00;99.90;;;;;;5072830;28;20059;-67
2022/09/24 12:36:53;;;;;;;2.83;0.70;;;15.10;99.90;;;;;;5074708;28;20040;-67
2022/09/24 12:39:24;;;;;;;3.63;0.80;;;15.10;99.90;;;;;;5077380;28;20051;-67
2022/09/24 12:41:59;;;;;;;2.67;0.60;;;15.10;99.90;;;;;;5077563;28;20433;-67
2022/09/24 12:44:35;;;;;;;2.25;0.80;;;15.10;99.90;;;;;;5076840;28;20063;-67
2022/09/24 12:47:01;;;;;;;2.80;0.90;;;15.10;99.90;;;;;;5076718;28;20113;-67
2022/09/24 12:49:33;;;;;;;3.08;0.80;;;15.00;99.90;;;;;;5077271;28;20048;-66
2022/09/24 12:52:03;;;;;;;4.03;1.00;;;14.90;99.90;;;;;;5077358;28;20368;-66
2022/09/24 12:54:33;;;;;;;3.80;1.45;;;14.90;99.90;;;;;;5076425;28;20040;-66
2022/09/24 12:57:13;;;;;;;3.55;1.00;;;14.90;99.90;;;;;;5077083;28;20379;-67
2022/09/24 12:59:50;;;;;;;2.75;0.95;;;14.90;99.90;;;;;;5076292;28;20076;-67
2022/09/24 13:02:22;;;;;;;2.22;0.73;;;14.90;99.90;;;;;;5075230;28;20423;-66
2022/09/24 13:05:00;;;;;;;2.47;1.00;;;14.80;99.90;;;;;;5076203;28;20477;-66
2022/09/24 13:07:30;;;;;;;7.25;1.75;;;14.90;99.90;;;;;;5075252;28;20466;-66
2022/09/24 13:09:56;;;;;;;2.08;0.80;;;15.00;99.90;;;;;;5075069;28;20044;-66
2022/09/24 13:12:32;;;;;;;3.35;1.10;;;15.00;99.90;;;;;;5075067;28;20481;-67
2022/09/24 13:15:03;;;;;;;;;;;15.10;99.90;;;;;;5076854;28;20040;-66